This is the latest recevied weather packets stored in our database for station/object XQ6AK-15. If no packets are shown the sender has not sent any weather packets the latest 10 day(s).
| Time | Temp. | Humidity | Pressure | Rain* | Wind** | Luminosity | Snow |
|---|---|---|---|---|---|---|---|
| 1787513828 | 16.67° C | 57% | 1014.4 hPa | 0 mm | - | 205 W/m² | - |
| 1787513524 | 16.67° C | 54% | 1014.5 hPa | 0 mm | - | 286 W/m² | - |
| 1787513220 | 16.67° C | 54% | 1014.4 hPa | 0 mm | - | 200 W/m² | - |
| 1787512916 | 16.67° C | 55% | 1014.6 hPa | 0 mm | - | 346 W/m² | - |
| 1787512612 | 16.67° C | 55% | 1014.6 hPa | 0 mm | - | 370 W/m² | - |
| 1787512307 | 16.67° C | 57% | 1014.8 hPa | 0 mm | - | 343 W/m² | - |
| 1787512002 | 16.11° C | 58% | 1014.5 hPa | 0 mm | - | 379 W/m² | - |
| 1787511698 | 16.67° C | 56% | 1014.7 hPa | 0 mm | - | 407 W/m² | - |
| 1787511396 | 16.67° C | 55% | 1014.7 hPa | 0 mm | - | 373 W/m² | - |
| 1787511091 | 17.22° C | 57% | 1014.7 hPa | 0 mm | - | 416 W/m² | - |
| 1787510791 | 16.11° C | 58% | 1015 hPa | 0 mm | - | 435 W/m² | - |
| 1787510486 | 16.67° C | 57% | 1014.9 hPa | 0 mm | - | 427 W/m² | - |
| 1787510181 | 16.11° C | 58% | 1014.7 hPa | 0 mm | - | 420 W/m² | - |
| 1787509879 | 16.67° C | 58% | 1015 hPa | 0 mm | - | 449 W/m² | - |
| 1787509578 | 16.11° C | 60% | 1015 hPa | 0 mm | - | 476 W/m² | - |
| 1787509275 | 16.11° C | 60% | 1014.8 hPa | 0 mm | - | 446 W/m² | - |
| 1787508974 | 16.11° C | 60% | 1014.9 hPa | 0 mm | - | 429 W/m² | - |
| 1787508671 | 15.56° C | 61% | 1015 hPa | 0 mm | - | 455 W/m² | - |
| 1787508371 | 15.56° C | 62% | 1015 hPa | 0 mm | - | 451 W/m² | - |
| 1787508067 | 16.11° C | 62% | 1015.1 hPa | 0 mm | - | 468 W/m² | - |
| 1787507763 | 15.56° C | 63% | 1015.1 hPa | 0 mm | - | 412 W/m² | - |
| 1787507459 | 15° C | 65% | 1015.3 hPa | 0 mm | - | 459 W/m² | - |
| 1787507154 | 16.11° C | 64% | 1015.2 hPa | 0 mm | - | 474 W/m² | - |
| 1787506850 | 15.56° C | 66% | 1015.4 hPa | 0 mm | - | 442 W/m² | - |
| 1787506541 | 15.56° C | 65% | 1015.4 hPa | 0 mm | - | 432 W/m² | - |
* Rain latest hour (hover to see other rain measurements)
** Current wind speed in m/s (hover to see current wind gust speed)